createdAt,value
2022-08-01T00:00:01.413Z,20.72
2022-08-01T00:05:01.724Z,20.71
2022-08-01T00:10:01.763Z,20.7
2022-08-01T00:15:01.577Z,20.69
2022-08-01T00:20:01.998Z,20.68
2022-08-01T00:25:02.101Z,20.64
2022-08-01T00:30:11.030Z,20.62
2022-08-01T00:35:01.478Z,20.61
2022-08-01T00:40:01.515Z,20.61
2022-08-01T00:45:01.317Z,20.62
2022-08-01T00:50:01.769Z,20.57
2022-08-01T00:55:02.065Z,20.58
2022-08-01T01:00:01.438Z,20.55
2022-08-01T01:05:01.990Z,20.51
2022-08-01T01:10:01.197Z,20.51
2022-08-01T01:15:01.965Z,20.51
2022-08-01T01:20:01.171Z,20.45
2022-08-01T01:25:01.828Z,20.44
2022-08-01T01:30:01.672Z,20.41
2022-08-01T01:35:02.326Z,20.37
2022-08-01T01:40:02.324Z,20.33
2022-08-01T01:45:01.568Z,20.31
2022-08-01T01:50:01.450Z,20.31
2022-08-01T01:55:01.855Z,20.25
2022-08-01T02:00:01.948Z,20.18
2022-08-01T02:05:02.109Z,20.16
2022-08-01T02:10:02.149Z,20.13
2022-08-01T02:15:01.401Z,20.13
2022-08-01T02:20:01.660Z,20.04
2022-08-01T02:25:01.285Z,20.01
2022-08-01T02:30:02.255Z,19.96
2022-08-01T02:35:01.276Z,19.92
2022-08-01T02:40:01.557Z,19.89
2022-08-01T02:45:01.869Z,19.87
2022-08-01T02:50:01.695Z,19.83
2022-08-01T02:55:01.636Z,19.81
2022-08-01T03:00:02.093Z,19.77
2022-08-01T03:05:01.262Z,19.74
2022-08-01T03:10:01.409Z,19.7
2022-08-01T03:15:01.993Z,19.69
2022-08-01T03:20:02.058Z,19.67
2022-08-01T03:25:01.944Z,19.62
2022-08-01T03:30:02.251Z,19.6
2022-08-01T03:35:01.571Z,19.58
2022-08-01T03:40:02.130Z,19.58
2022-08-01T03:45:01.365Z,19.57
2022-08-01T03:50:01.569Z,19.56
2022-08-01T03:55:01.981Z,19.56
2022-08-01T04:00:01.907Z,19.54
2022-08-01T04:05:02.115Z,19.53
2022-08-01T04:10:01.979Z,19.54
2022-08-01T04:15:01.394Z,19.51
2022-08-01T04:20:01.836Z,19.5
2022-08-01T04:25:01.473Z,19.5
2022-08-01T04:30:01.421Z,19.51
2022-08-01T04:35:01.978Z,19.5
2022-08-01T04:40:01.424Z,19.52
2022-08-01T04:45:01.682Z,19.5
2022-08-01T04:50:02.024Z,19.52
2022-08-01T04:55:01.519Z,19.51
2022-08-01T05:00:01.921Z,19.55
2022-08-01T05:05:01.237Z,19.54
2022-08-01T05:10:01.894Z,19.55
2022-08-01T05:15:01.254Z,19.55
2022-08-01T05:20:01.391Z,19.62
2022-08-01T05:25:01.929Z,19.62
2022-08-01T05:30:02.162Z,19.66
2022-08-01T05:35:02.097Z,19.7
2022-08-01T05:40:01.465Z,19.7
2022-08-01T05:45:01.285Z,19.73
2022-08-01T05:50:01.623Z,19.72
2022-08-01T05:55:01.667Z,19.77
2022-08-01T06:00:01.637Z,19.79
2022-08-01T06:05:01.637Z,19.77
2022-08-01T06:10:01.519Z,19.8
2022-08-01T06:15:01.964Z,19.8
2022-08-01T06:20:02.353Z,19.79
2022-08-01T06:25:02.075Z,19.77
2022-08-01T06:30:02.055Z,19.76
2022-08-01T06:35:01.412Z,19.86
2022-08-01T06:40:02.169Z,19.92
2022-08-01T06:45:02.153Z,19.97
2022-08-01T06:50:02.098Z,20.05
2022-08-01T06:55:01.631Z,20.11
2022-08-01T07:00:02.188Z,20.09
2022-08-01T07:05:02.170Z,20.1
2022-08-01T07:10:01.229Z,20.18
2022-08-01T07:15:01.860Z,20.27
2022-08-01T07:20:01.958Z,20.27
2022-08-01T07:25:01.632Z,20.28
2022-08-01T07:30:01.586Z,20.31
2022-08-01T07:35:02.281Z,20.47
2022-08-01T07:40:01.700Z,20.64
2022-08-01T07:45:01.381Z,20.9
2022-08-01T07:50:01.602Z,21.22
2022-08-01T07:55:01.519Z,21.23
2022-08-01T08:00:01.538Z,21.25
2022-08-01T08:05:01.683Z,21.32
2022-08-01T08:10:01.276Z,21.16
2022-08-01T08:15:01.280Z,21.2
2022-08-01T08:20:01.180Z,21.22
2022-08-01T08:25:01.821Z,21.44
2022-08-01T08:30:02.006Z,21.72
2022-08-01T08:35:01.589Z,21.67
2022-08-01T08:40:01.807Z,21.68
2022-08-01T08:45:02.899Z,21.61
2022-08-01T08:50:01.753Z,21.34
2022-08-01T08:55:01.756Z,21.33
2022-08-01T09:00:02.014Z,21.36
2022-08-01T09:05:02.113Z,21.34
2022-08-01T09:10:01.237Z,21.46
2022-08-01T09:15:01.497Z,21.61
2022-08-01T09:20:02.127Z,21.72
2022-08-01T09:25:01.562Z,21.91
2022-08-01T09:30:02.278Z,22.28
2022-08-01T09:35:01.708Z,22.49
2022-08-01T09:40:01.587Z,22.48
2022-08-01T09:45:01.573Z,22.64
2022-08-01T09:50:01.705Z,22.91
2022-08-01T09:55:01.604Z,23.47
2022-08-01T10:00:02.235Z,24.09
2022-08-01T10:05:03.755Z,24.01
2022-08-01T10:10:01.609Z,23.8
2022-08-01T10:15:02.064Z,22.87
2022-08-01T10:20:01.411Z,22.83
2022-08-01T10:25:01.234Z,23.25
2022-08-01T10:30:07.458Z,23.76
2022-08-01T10:35:06.875Z,23.66
2022-08-01T10:40:27.247Z,23.52
2022-08-01T10:45:01.790Z,23.21
2022-08-01T10:50:01.917Z,23.17
2022-08-01T10:55:01.549Z,23.23
2022-08-01T11:00:01.966Z,22.93
2022-08-01T11:05:01.134Z,22.7
2022-08-01T11:10:01.181Z,22.73
2022-08-01T11:15:02.829Z,22.68
2022-08-01T11:20:02.090Z,22.83
2022-08-01T11:25:02.142Z,22.83
2022-08-01T11:30:01.988Z,24.12
2022-08-01T11:35:02.052Z,24.02
2022-08-01T11:40:01.318Z,23.52
2022-08-01T11:45:02.223Z,23.39
2022-08-01T11:50:02.007Z,23.85
2022-08-01T11:55:01.783Z,23.98
2022-08-01T12:00:03.507Z,23.6
2022-08-01T12:05:01.292Z,23.28
2022-08-01T12:10:01.717Z,23.02
2022-08-01T12:15:01.481Z,22.99
2022-08-01T12:20:02.068Z,23.09
2022-08-01T12:25:01.740Z,23.29
2022-08-01T12:30:02.338Z,23.47
2022-08-01T12:35:01.549Z,23.64
2022-08-01T12:40:01.690Z,23.71
2022-08-01T12:45:01.617Z,23.79
2022-08-01T12:50:01.804Z,23.89
2022-08-01T12:55:01.936Z,24.17
2022-08-01T13:00:01.257Z,24.47
2022-08-01T13:05:01.975Z,24.42
2022-08-01T13:10:01.774Z,24.41
2022-08-01T13:15:02.061Z,24.62
2022-08-01T13:20:01.205Z,24.7
2022-08-01T13:25:01.261Z,24.62
2022-08-01T13:30:01.270Z,24.5
2022-08-01T13:35:01.426Z,24.49
2022-08-01T13:40:01.505Z,24.72
2022-08-01T13:45:02.983Z,24.6
2022-08-01T13:50:01.402Z,24.32
2022-08-01T13:55:01.760Z,24.15
2022-08-01T14:00:02.407Z,24.13
2022-08-01T14:05:01.889Z,24.19
2022-08-01T14:10:17.552Z,24.25
2022-08-01T14:15:01.654Z,24.38
2022-08-01T14:20:02.031Z,24.47
2022-08-01T14:25:03.635Z,24.44
2022-08-01T14:30:03.464Z,24.32
2022-08-01T14:35:01.895Z,24.21
2022-08-01T14:40:02.075Z,24.12
2022-08-01T14:45:01.395Z,24.01
2022-08-01T14:50:01.960Z,23.96
2022-08-01T14:55:01.863Z,23.89
2022-08-01T15:00:01.904Z,23.88
2022-08-01T15:05:01.879Z,24.12
2022-08-01T15:10:01.147Z,24.36
2022-08-01T15:15:01.395Z,24.45
2022-08-01T15:20:01.993Z,24.44
2022-08-01T15:25:01.436Z,24.42
2022-08-01T15:30:01.451Z,24.39
2022-08-01T15:35:01.575Z,24.35
2022-08-01T15:40:01.860Z,24.16
2022-08-01T15:45:01.983Z,24.15
2022-08-01T15:50:01.570Z,24.09
2022-08-01T15:55:01.389Z,24.01
2022-08-01T16:00:01.696Z,23.89
2022-08-01T16:05:01.451Z,23.88
2022-08-01T16:10:01.424Z,23.79
2022-08-01T16:15:01.431Z,23.83
2022-08-01T16:20:01.366Z,23.88
2022-08-01T16:25:01.560Z,24.01
2022-08-01T16:30:01.563Z,24.09
2022-08-01T16:35:01.523Z,24.08
2022-08-01T16:40:01.646Z,24.04
2022-08-01T16:45:01.549Z,23.96
2022-08-01T16:50:01.212Z,23.98
2022-08-01T16:55:01.506Z,24.01
2022-08-01T17:00:01.787Z,23.96
2022-08-01T17:05:01.150Z,23.81
2022-08-01T17:10:01.945Z,23.66
2022-08-01T17:15:01.422Z,23.5
2022-08-01T17:20:01.860Z,23.29
2022-08-01T17:25:01.203Z,23.15
2022-08-01T17:30:01.981Z,23.06
2022-08-01T17:35:01.562Z,22.99
2022-08-01T17:40:06.374Z,22.93
2022-08-01T17:45:01.532Z,22.83
2022-08-01T17:50:02.080Z,22.9
2022-08-01T17:55:01.555Z,22.99
2022-08-01T18:00:01.211Z,23.06
2022-08-01T18:05:01.187Z,23.12
2022-08-01T18:10:01.821Z,23.09
2022-08-01T18:15:01.721Z,23.11
2022-08-01T18:20:01.422Z,23.09
2022-08-01T18:25:03.940Z,23.01
2022-08-01T18:30:01.445Z,22.83
2022-08-01T18:35:04.424Z,22.67
2022-08-01T18:40:01.640Z,22.58
2022-08-01T18:45:02.039Z,22.49
2022-08-01T18:50:01.601Z,22.35
2022-08-01T18:55:01.919Z,22.22
2022-08-01T19:00:01.301Z,22.06
2022-08-01T19:05:01.878Z,21.96
2022-08-01T19:10:01.955Z,21.93
2022-08-01T19:15:04.865Z,21.8
2022-08-01T19:20:01.764Z,21.61
2022-08-01T19:25:01.772Z,21.51
2022-08-01T19:30:01.746Z,21.31
2022-08-01T19:35:01.458Z,21.07
2022-08-01T19:40:01.883Z,20.92
2022-08-01T19:45:01.856Z,20.65
2022-08-01T19:50:01.607Z,20.41
2022-08-01T19:55:01.379Z,20.18
2022-08-01T20:00:01.778Z,19.9
2022-08-01T20:05:02.006Z,19.73
2022-08-01T20:10:01.176Z,19.56
2022-08-01T20:15:01.410Z,19.4
2022-08-01T20:20:02.068Z,19.27
2022-08-01T20:25:02.116Z,19.1
2022-08-01T20:30:02.027Z,18.97
2022-08-01T20:35:02.125Z,18.86
2022-08-01T20:40:01.564Z,18.59
2022-08-01T20:45:01.364Z,18.42
2022-08-01T20:50:01.793Z,18.33
2022-08-01T20:55:02.095Z,18.24
2022-08-01T21:00:01.232Z,18.15
2022-08-01T21:05:01.672Z,18.07
2022-08-01T21:10:01.789Z,17.97
2022-08-01T21:15:01.644Z,17.83
2022-08-01T21:20:01.253Z,17.76
2022-08-01T21:25:01.365Z,17.68
2022-08-01T21:30:01.656Z,17.58
2022-08-01T21:35:01.941Z,17.47
2022-08-01T21:40:09.532Z,17.39
2022-08-01T21:45:01.787Z,17.34
2022-08-01T21:50:01.292Z,17.32
2022-08-01T21:55:01.317Z,17.16
2022-08-01T22:00:01.599Z,17.07
2022-08-01T22:05:01.419Z,17.07
2022-08-01T22:10:01.788Z,17.03
2022-08-01T22:15:01.646Z,16.88
2022-08-01T22:20:02.111Z,16.77
2022-08-01T22:25:01.999Z,16.7
2022-08-01T22:30:01.543Z,16.64
2022-08-01T22:35:01.249Z,16.55
2022-08-01T22:40:01.841Z,16.44
2022-08-01T22:45:01.900Z,16.31
2022-08-01T22:50:01.167Z,16.25
2022-08-01T22:55:01.291Z,16.21
2022-08-01T23:00:01.711Z,16.18
2022-08-01T23:05:01.700Z,16.1
2022-08-01T23:10:01.355Z,16.1
2022-08-01T23:15:01.845Z,16.1
2022-08-01T23:20:01.386Z,16.1
2022-08-01T23:25:03.916Z,16.04
2022-08-01T23:30:01.367Z,16.05
2022-08-01T23:35:01.969Z,16.02
2022-08-01T23:40:01.960Z,16.01
2022-08-01T23:45:02.047Z,15.96
2022-08-01T23:50:01.495Z,15.95
2022-08-01T23:55:03.473Z,15.9
